Terminal Aerodrome Forecast
Issued by NWS

Home | Current Version | Previous Version | Text Only | Print | Product List | Glossary On
Versions: 1 2 3 4 5 6 7 8 9 10 11 12 13 14
000
FTUS43 KICT 241932 AAB
TAFHUT
TAF AMD
KHUT 241932Z 2420/2518 19014KT P6SM VCTS SCT015 BKN030CB
      TEMPO 2420/2422 2SM TSRA BKN015CB
     FM250100 15008KT P6SM -SHRA VCTS BKN030CB
     FM250500 29004KT P6SM -SHRA OVC040
     FM251000 VRB05KT P6SM -SHRA OVC030
     FM251500 34010KT P6SM -SHRA VCTS OVC030CB=

USA.gov is the U.S. government's official web portal to all federal, state and local government web resources and services.